Midland, TX

8:12 PM CDT on August 22, 2014 (GMT -0500)
Midland International | Change Station
CLOSE
Current Station
Airport
Location: Midland,
Elevation: 2861 ft
Nearby Weather Stations

Elev 2861 ft 31.95 °N, 102.21 °W | Updated 19 minutes ago

Clear
Clear
92 °F
Feels Like 90 °F
N
14
Wind Variable Wind from SE

Today
High -- | Low -- °F
--% Chance of Precip.
Yesterday
High -- | Low -- °F
Precip. -- in
7:17 AM 8:24 PM
Waning Crescent, 6% visible
Pressure 29.80 in
Visibility 10.0 miles
Clouds Clear
Heat Index 90 °F
Dew Point 53 °F
Humidity 27%
Rainfall 0.00 in
Snow Depth Not available.
UV 0 out of 12
Pollen 9.20 out of 12
PM2.5 Moderate
Flu Activity Not available.
METAR KMAF 230053Z 14012KT 10SM CLR 33/12 A2995 RMK AO2 SLP089 T03330117

More Conditions Fewer Conditions

Pressure 29.80 in
Visibility 10.0 miles
Clouds Clear
Heat Index 90 °F
Dew Point 53 °F
Humidity 27%
Rainfall 0.00 in
Snow Depth Not available.
UV 0 out of 12
Pollen 9.20 out of 12
PM2.5 Moderate
Flu Activity Not available.
METAR KMAF 230053Z 14012KT 10SM CLR 33/12 A2995 RMK AO2 SLP089 T03330117

More Conditions Fewer Conditions

10-Day Weather Forecast

Almanac

Astronomy

Aug. 22, 2014 Rise Set
Actual Time 7:17 AM CDT 8:24 PM CDT
Civil Twilight 6:52 AM CDT 8:50 PM CDT
Nautical Twilight 6:22 AM CDT 9:20 PM CDT
Astronomical Twilight 5:51 AM CDT 9:51 PM CDT
Moon 4:46 AM CDT (8/22) 6:31 PM CDT (8/22)
Length of Visible Light 13h 57m
Length of Day
13h 06m
Tomorrow will be 1m 47s shorter.
Waning Crescent, 6% of the Moon is Illuminated
Today
Waning Crescent
Aug 25
New
Sep 2
First Quarter
Sep 8
Full
Sep 15
Last Quarter

Today's Extremes

State Highs State Lows

Community

WunderPhotos

Upload Photos

1,746,337 photos uploaded!

WunderBlogs® & News

Nearby

Air Quality

  Air Quality AQ Index Pollutant
Yesterday Good
PM2.5
Current Moderate
PM2.5
Friday Good
PM10
Friday Good
OZONE
Saturday Good
PM10
Saturday Good
OZONE
Sunday Good
PM10
Sunday Good
OZONE
Monday Good
PM10
Monday Good
OZONE
Tuesday Good
PM10
Tuesday Good
OZONE

Snow Depth

Station Depth Elevation
No new snow has been reported.

Earthquake Activity

City Distance Mag. Time & Date
No recent earthquake activity has been reported nearby.
Minimum magnitude displayed is 2.5.

Coastal Water Temperatures

Place Temperature
No Stations Reporting

Nearby Weather Stations